Time;durP1;ratioP1;P1;durP2;ratioP2;P2;SDS_P1;SDS_P2;PMS_P1;PMS_P2;Temp;Humidity;BMP_temperature;BMP_pressure;BME280_temperature;BME280_humidity;BME280_pressure;Samples;Min_cycle;Max_cycle;Signal;HPM_P1;HPM_P2
2023/01/30 00:01:02;;;;;;;11.65;9.00;;;;;;;19.05;39.13;101862.84;5055174;28;20056;-57
2023/01/30 00:03:29;;;;;;;11.77;9.30;;;;;;;19.06;38.90;101863.69;5055013;28;20120;-58
2023/01/30 00:05:56;;;;;;;10.18;9.07;;;;;;;19.05;38.91;101862.84;5054873;28;20067;-57
2023/01/30 00:08:24;;;;;;;12.60;9.70;;;;;;;19.06;38.98;101855.63;5055275;28;20045;-52
2023/01/30 00:10:51;;;;;;;11.82;9.85;;;;;;;19.05;38.93;101856.63;5055452;28;20037;-57
2023/01/30 00:13:19;;;;;;;12.48;9.80;;;;;;;19.05;38.89;101853.94;5053839;28;20049;-58
2023/01/30 00:15:47;;;;;;;12.45;10.05;;;;;;;19.03;39.05;101844.13;5054849;28;20411;-58
2023/01/30 00:18:14;;;;;;;12.25;10.05;;;;;;;19.03;38.74;101837.91;5054884;28;20411;-49
2023/01/30 00:20:42;;;;;;;11.70;8.93;;;;;;;19.03;38.93;101837.91;5054701;28;20041;-48
2023/01/30 00:23:09;;;;;;;10.30;8.52;;;;;;;19.02;39.09;101833.50;5054977;28;20045;-50
2023/01/30 00:25:36;;;;;;;10.75;9.13;;;;;;;19.02;39.05;101831.69;5054846;28;20395;-47
2023/01/30 00:28:04;;;;;;;13.15;8.55;;;;;;;19.01;39.17;101826.44;5053983;28;20486;-52
2023/01/30 00:30:31;;;;;;;10.40;9.27;;;;;;;19.01;39.12;101819.25;5054009;28;20056;-51
2023/01/30 00:32:59;;;;;;;12.43;9.35;;;;;;;19.00;39.11;101825.59;5054998;28;20377;-49
2023/01/30 00:35:29;;;;;;;11.43;9.30;;;;;;;18.99;39.12;101822.97;5053450;28;20053;-49
2023/01/30 00:37:58;;;;;;;10.85;9.38;;;;;;;18.99;39.15;101825.66;5054892;28;20369;-56
2023/01/30 00:40:26;;;;;;;9.15;8.20;;;;;;;18.96;39.15;101821.41;5070476;28;20052;-51
2023/01/30 00:48:29;;;;;;;11.32;9.27;;;;;;;18.94;39.19;101817.94;5054873;28;20062;-49
2023/01/30 00:50:57;;;;;;;11.50;9.48;;;;;;;18.94;39.09;101817.94;5054765;28;20045;-50
2023/01/30 00:53:24;;;;;;;9.00;7.65;;;;;;;18.93;39.40;101816.22;5053211;28;20071;-49
2023/01/30 00:55:53;;;;;;;10.40;8.23;;;;;;;18.92;39.39;101814.53;5054826;28;20060;-49
2023/01/30 00:58:22;;;;;;;9.25;7.68;;;;;;;18.90;39.55;101800.34;5054580;28;20059;-50
2023/01/30 01:00:50;;;;;;;9.52;8.50;;;;;;;18.91;39.35;101804.72;5054492;28;20048;-50
2023/01/30 01:03:18;;;;;;;9.63;7.78;;;;;;;18.91;39.32;101798.50;5052987;28;20052;-48
2023/01/30 01:05:46;;;;;;;10.13;8.52;;;;;;;18.89;39.24;101787.88;5054861;28;20507;-49
2023/01/30 01:08:14;;;;;;;11.57;8.27;;;;;;;18.88;39.17;101802.28;5054657;28;20052;-56
2023/01/30 01:10:42;;;;;;;9.93;8.20;;;;;;;18.88;39.17;101794.22;5054277;28;20041;-50
2023/01/30 01:13:09;;;;;;;9.15;7.82;;;;;;;18.87;39.29;101780.91;5054243;28;20047;-49
2023/01/30 01:15:36;;;;;;;10.23;8.20;;;;;;;18.88;39.06;101787.97;5054158;28;20095;-48
2023/01/30 01:18:05;;;;;;;9.43;7.72;;;;;;;18.87;39.16;101788.94;5054124;28;20053;-58
2023/01/30 01:20:33;;;;;;;8.63;7.25;;;;;;;18.87;39.28;101787.13;5053072;28;20071;-49
2023/01/30 01:23:02;;;;;;;8.35;7.47;;;;;;;18.88;39.28;101790.66;5054119;28;20044;-49
2023/01/30 01:25:29;;;;;;;10.27;8.15;;;;;;;18.87;39.11;101780.91;5054061;28;20398;-49
2023/01/30 01:27:58;;;;;;;11.45;8.15;;;;;;;18.85;39.20;101797.13;5054092;28;20051;-58
2023/01/30 01:30:25;;;;;;;11.57;8.63;;;;;;;18.86;39.28;101784.56;5054146;28;20056;-58
2023/01/30 01:32:52;;;;;;;8.55;7.38;;;;;;;18.86;39.34;101787.25;5052478;28;20044;-58
2023/01/30 01:35:20;;;;;;;9.07;7.85;;;;;;;18.85;39.21;101769.44;5054032;28;20041;-58
2023/01/30 01:37:47;;;;;;;8.02;7.22;;;;;;;18.84;39.34;101767.69;5053942;28;20056;-58
2023/01/30 01:43:21;;;;;;;9.43;8.07;;;;;;;18.83;39.40;101760.63;5053914;28;20468;-58
2023/01/30 01:46:05;;;;;;;9.90;6.80;;;;;;;18.82;39.33;101759.75;5053779;28;20041;-58
2023/01/30 01:48:48;;;;;;;9.85;7.93;;;;;;;18.82;39.40;101753.53;5054007;28;20052;-50
2023/01/30 01:51:21;;;;;;;9.48;8.07;;;;;;;18.81;39.23;101746.47;5053636;28;20108;-49
2023/01/30 01:53:56;;;;;;;9.75;7.80;;;;;;;18.81;39.37;101749.16;5053908;28;20633;-49
2023/01/30 01:56:24;;;;;;;9.13;7.60;;;;;;;18.80;39.40;101753.66;5053614;28;20068;-48
2023/01/30 01:58:57;;;;;;;9.00;7.82;;;;;;;18.81;39.38;101741.09;5053790;28;20045;-59
2023/01/30 02:01:24;;;;;;;10.32;8.27;;;;;;;18.80;39.44;101737.56;5052102;28;20044;-58
2023/01/30 02:03:57;;;;;;;8.82;7.93;;;;;;;18.79;39.41;101743.88;5052414;28;20053;-58
2023/01/30 02:06:25;;;;;;;7.82;6.68;;;;;;;18.78;39.60;101748.38;5052101;28;20060;-58
2023/01/30 02:09:00;;;;;;;9.63;7.43;;;;;;;18.78;39.46;101731.44;5052721;28;20131;-48
2023/01/30 02:11:52;;;;;;;8.90;7.38;;;;;;;18.78;39.41;101736.78;5052237;28;20120;-49
2023/01/30 02:14:21;;;;;;;9.35;7.15;;;;;;;18.77;39.55;101735.09;5052413;28;20061;-49
2023/01/30 02:16:50;;;;;;;10.82;8.18;;;;;;;18.76;39.33;101728.88;5053447;28;20253;-52
2023/01/30 02:20:06;;;;;;;9.25;7.28;;;;;;;18.76;39.49;101733.38;5057614;28;20045;-48
2023/01/30 02:22:40;;;;;;;9.35;7.68;;;;;;;18.76;39.29;101730.69;5050049;28;20057;-48
2023/01/30 02:25:43;;;;;;;8.40;7.13;;;;;;;18.76;39.26;101730.69;5057470;28;20491;-50
2023/01/30 02:28:36;;;;;;;9.23;7.15;;;;;;;18.75;39.41;101724.44;5035195;28;20061;-48
2023/01/30 02:31:13;;;;;;;10.15;7.95;;;;;;;18.74;39.21;101720.03;5056011;28;20491;-59
2023/01/30 02:33:56;;;;;;;8.90;7.53;;;;;;;18.73;39.28;101720.16;5056527;28;20406;-59
2023/01/30 02:36:50;;;;;;;8.20;6.68;;;;;;;18.71;39.31;101720.25;5056005;28;20392;-59
2023/01/30 02:39:26;;;;;;;9.43;7.78;;;;;;;18.71;39.21;101720.25;5057945;28;20057;-48
2023/01/30 02:42:04;;;;;;;8.05;7.18;;;;;;;18.69;39.39;101714.13;5055969;28;20053;-48
2023/01/30 02:44:49;;;;;;;9.88;8.25;;;;;;;18.70;39.27;101705.13;5056030;28;20052;-50
2023/01/30 02:47:24;;;;;;;10.55;7.47;;;;;;;18.69;39.27;101700.72;5057627;28;20080;-49
2023/01/30 02:50:11;;;;;;;8.02;6.90;;;;;;;18.69;39.33;101699.84;5055893;28;20052;-58
2023/01/30 02:52:39;;;;;;;9.68;7.40;;;;;;;18.69;39.18;101689.13;5056624;28;20048;-58
2023/01/30 02:55:19;;;;;;;9.50;6.93;;;;;;;18.68;39.19;101690.09;5056520;28;20049;-59
2023/01/30 02:57:46;;;;;;;8.70;7.10;;;;;;;18.69;39.21;101689.13;5057156;28;20489;-58
2023/01/30 03:00:21;;;;;;;8.35;7.20;;;;;;;18.68;39.37;101693.63;5055218;28;20426;-58
2023/01/30 03:03:05;;;;;;;8.25;6.75;;;;;;;18.67;39.50;101685.66;5055285;28;20056;-58
2023/01/30 03:05:43;;;;;;;10.48;7.40;;;;;;;18.67;39.48;101685.66;5055166;28;20064;-58
2023/01/30 03:08:25;;;;;;;9.13;6.65;;;;;;;18.67;39.40;101689.22;5056970;28;20060;-57
2023/01/30 03:10:59;;;;;;;9.05;7.00;;;;;;;18.68;39.61;101676.69;5055295;28;20524;-48
2023/01/30 03:13:54;;;;;;;7.80;6.85;;;;;;;18.66;39.29;101679.44;5054914;28;20045;-50
2023/01/30 03:16:27;;;;;;;7.55;6.78;;;;;;;18.66;39.45;101673.22;5056442;28;20060;-48
2023/01/30 03:18:54;;;;;;;8.63;7.32;;;;;;;18.67;39.48;101669.56;5055012;28;20044;-58
2023/01/30 03:21:22;;;;;;;9.00;7.07;;;;;;;18.66;39.35;101670.56;5055342;28;20064;-58
2023/01/30 03:23:51;;;;;;;7.55;6.68;;;;;;;18.66;39.55;101665.19;5054966;28;20045;-58
2023/01/30 03:26:23;;;;;;;7.70;6.13;;;;;;;18.65;39.52;101660.81;5055246;28;20049;-58
2023/01/30 03:28:51;;;;;;;9.68;6.50;;;;;;;18.65;39.64;101671.53;5053953;28;20061;-49
2023/01/30 03:31:19;;;;;;;7.30;5.85;;;;;;;18.65;39.35;101667.03;5055288;28;20056;-49
2023/01/30 03:33:47;;;;;;;7.82;6.63;;;;;;;18.64;39.48;101667.13;5056200;28;20045;-49
2023/01/30 03:36:14;;;;;;;7.65;6.18;;;;;;;18.64;39.68;101662.63;5054756;28;20051;-49
2023/01/30 03:38:42;;;;;;;8.73;6.05;;;;;;;18.64;39.39;101669.81;5056414;28;20379;-58
2023/01/30 03:41:09;;;;;;;7.25;6.32;;;;;;;18.64;39.57;101670.66;5054671;28;20509;-59
2023/01/30 03:43:38;;;;;;;9.25;6.72;;;;;;;18.63;39.49;101668.06;5054732;28;20056;-59
2023/01/30 03:46:06;;;;;;;7.25;6.18;;;;;;;18.64;39.36;101677.88;5055972;28;20045;-59
2023/01/30 03:48:33;;;;;;;6.90;6.00;;;;;;;18.63;39.53;101670.75;5055089;28;20057;-56
2023/01/30 03:51:00;;;;;;;7.43;6.13;;;;;;;18.63;39.52;101670.75;5054861;28;20053;-58
2023/01/30 03:53:28;;;;;;;7.88;6.43;;;;;;;18.62;39.36;101661.00;5054304;28;20396;-57
2023/01/30 03:55:55;;;;;;;8.23;5.47;;;;;;;18.61;39.38;101662.84;5054135;28;20052;-58
2023/01/30 03:58:29;;;;;;;7.68;6.10;;;;;;;18.61;39.26;101653.94;5054640;28;20058;-49
2023/01/30 04:00:59;;;;;;;7.78;6.03;;;;;;;18.61;39.56;101657.47;5054165;28;20049;-49
2023/01/30 04:03:26;;;;;;;9.10;6.75;;;;;;;18.61;39.54;101659.31;5055621;28;20041;-48
2023/01/30 04:05:57;;;;;;;9.32;6.10;;;;;;;18.61;39.65;101656.63;5054548;28;20415;-49
2023/01/30 04:08:25;;;;;;;7.18;5.68;;;;;;;18.62;39.56;101661.00;5054427;28;20076;-50
2023/01/30 04:10:52;;;;;;;6.80;5.20;;;;;;;18.62;39.58;101661.00;5055523;28;20045;-58
2023/01/30 04:13:20;;;;;;;8.65;5.78;;;;;;;18.62;39.69;101667.22;5054219;28;20064;-58
2023/01/30 04:15:47;;;;;;;6.45;5.22;;;;;;;18.62;39.75;101651.13;5054066;28;20056;-58
2023/01/30 04:18:44;;;;;;;7.05;5.68;;;;;;;18.61;39.59;101652.09;5055654;28;20049;-49
2023/01/30 04:21:19;;;;;;;6.78;6.07;;;;;;;18.61;39.68;101646.75;5054533;28;20072;-48
2023/01/30 04:23:46;;;;;;;9.48;5.60;;;;;;;18.62;39.60;101639.56;5055053;28;20037;-49
2023/01/30 04:26:14;;;;;;;7.32;5.85;;;;;;;18.61;39.76;101636.00;5053574;28;20049;-50
2023/01/30 04:28:43;;;;;;;7.30;6.25;;;;;;;18.61;39.67;101625.28;5053683;28;20064;-48
2023/01/30 04:31:12;;;;;;;7.20;5.20;;;;;;;18.62;39.77;101631.50;5053528;28;20064;-51
2023/01/30 04:33:42;;;;;;;6.75;5.15;;;;;;;18.61;39.71;101621.75;5053283;28;20434;-49
2023/01/30 04:36:12;;;;;;;6.20;5.55;;;;;;;18.61;39.66;101619.91;5053273;28;20049;-48
2023/01/30 04:38:40;;;;;;;7.95;5.30;;;;;;;18.61;39.76;101621.75;5054163;28;20404;-49
2023/01/30 04:41:07;;;;;;;7.60;5.40;;;;;;;18.60;39.58;101620.91;5053155;28;20408;-48
2023/01/30 04:43:38;;;;;;;6.60;4.95;;;;;;;18.59;39.69;101619.16;5053842;28;20068;-49
2023/01/30 04:46:24;;;;;;;7.03;5.63;;;;;;;18.60;39.58;101623.59;5061883;28;20056;-51
2023/01/30 04:48:52;;;;;;;7.00;5.40;;;;;;;18.59;39.62;101618.31;5053709;28;20506;-59
2023/01/30 04:51:19;;;;;;;7.90;5.57;;;;;;;18.59;39.58;101621.84;5053096;28;20422;-59
2023/01/30 04:53:47;;;;;;;7.18;5.07;;;;;;;18.58;39.48;101620.13;5053842;28;20060;-58
2023/01/30 04:56:14;;;;;;;6.45;5.13;;;;;;;18.58;39.38;101612.09;5053457;28;20060;-58
2023/01/30 04:58:42;;;;;;;5.50;4.90;;;;;;;18.58;39.56;101605.88;5054404;28;20061;-58
2023/01/30 05:01:15;;;;;;;6.72;5.05;;;;;;;18.58;39.41;101597.81;5053567;28;20053;-58
2023/01/30 05:03:43;;;;;;;6.95;4.95;;;;;;;18.58;39.52;101597.81;5053554;28;20120;-58
2023/01/30 05:06:10;;;;;;;6.05;5.00;;;;;;;18.58;39.36;101592.47;5054688;28;20041;-58
2023/01/30 05:08:38;;;;;;;6.75;5.22;;;;;;;18.56;39.34;101597.09;5054644;28;20045;-58
2023/01/30 05:11:05;;;;;;;6.32;5.20;;;;;;;18.56;39.43;101584.53;5054698;28;20049;-59
2023/01/30 05:13:33;;;;;;;6.53;5.28;;;;;;;18.56;39.43;101576.50;5052849;28;20049;-59
2023/01/30 05:16:00;;;;;;;6.65;4.72;;;;;;;18.54;39.26;101573.91;5054276;28;20115;-59
2023/01/30 05:18:27;;;;;;;6.43;4.82;;;;;;;18.56;39.32;101581.00;5054584;28;20063;-50
2023/01/30 05:21:03;;;;;;;6.93;4.68;;;;;;;18.53;39.41;101565.97;5054302;28;20048;-59
2023/01/30 05:23:31;;;;;;;6.63;5.03;;;;;;;18.53;39.41;101560.63;5053979;28;20041;-58
2023/01/30 05:25:58;;;;;;;6.57;5.18;;;;;;;18.53;39.41;101558.78;5053663;28;20044;-59
2023/01/30 05:28:28;;;;;;;6.63;5.38;;;;;;;18.53;39.32;101548.06;5054359;28;20052;-52
2023/01/30 05:31:09;;;;;;;5.53;4.32;;;;;;;18.53;39.33;101545.38;5052788;28;20128;-59
2023/01/30 05:33:38;;;;;;;6.60;4.53;;;;;;;18.54;39.49;101540.88;5053982;28;20041;-59
2023/01/30 05:36:06;;;;;;;5.78;4.43;;;;;;;18.54;39.31;101538.19;5053997;28;20040;-59
2023/01/30 05:38:33;;;;;;;6.20;4.60;;;;;;;18.53;39.34;101531.13;5054013;28;20047;-57
2023/01/30 05:41:03;;;;;;;7.40;5.38;;;;;;;18.53;39.32;101534.66;5053835;28;20048;-59
2023/01/30 05:43:31;;;;;;;6.80;5.15;;;;;;;18.53;39.26;101531.97;5053740;28;20037;-58
2023/01/30 05:46:02;;;;;;;7.47;4.97;;;;;;;18.53;39.37;101533.81;5052473;28;20053;-57
2023/01/30 05:48:29;;;;;;;7.22;4.93;;;;;;;18.52;39.36;101542.81;5053829;28;20040;-57
2023/01/30 05:50:58;;;;;;;6.32;4.80;;;;;;;18.52;39.22;101542.81;5053976;28;20045;-58
2023/01/30 05:53:28;;;;;;;7.35;4.95;;;;;;;18.52;39.43;101553.53;5052193;28;20041;-58
2023/01/30 05:56:00;;;;;;;6.53;4.93;;;;;;;18.52;39.41;101550.88;5053071;28;20052;-58
2023/01/30 05:58:28;;;;;;;6.65;4.57;;;;;;;18.52;39.33;101561.59;5053205;28;20112;-56
2023/01/30 06:01:08;;;;;;;5.72;4.38;;;;;;;18.51;39.28;101562.53;5051607;28;20064;-48
2023/01/30 06:03:36;;;;;;;5.47;4.50;;;;;;;18.52;39.34;101564.28;5053450;28;20044;-48
2023/01/30 06:06:04;;;;;;;7.30;4.70;;;;;;;18.51;39.37;101570.56;5053429;28;20399;-50
2023/01/30 06:08:32;;;;;;;6.85;4.57;;;;;;;18.50;39.37;101572.41;5053689;28;20380;-57
2023/01/30 06:11:01;;;;;;;6.85;4.43;;;;;;;18.50;39.28;101587.63;5053107;28;20049;-59
2023/01/30 06:13:29;;;;;;;5.35;4.30;;;;;;;18.50;39.07;101596.53;5052914;28;20067;-58
2023/01/30 06:15:56;;;;;;;6.03;4.75;;;;;;;18.49;39.07;101589.47;5053304;28;20052;-58
2023/01/30 06:18:24;;;;;;;6.38;4.40;;;;;;;18.50;39.10;101601.03;5053715;28;20049;-48
2023/01/30 06:20:52;;;;;;;6.60;5.05;;;;;;;18.48;39.09;101598.47;5053569;28;20053;-49
2023/01/30 06:23:22;;;;;;;5.97;4.53;;;;;;;18.48;39.02;101600.31;5053095;28;20045;-48
2023/01/30 06:25:51;;;;;;;7.88;4.28;;;;;;;18.48;39.14;101611.03;5052176;28;20049;-48
2023/01/30 06:28:19;;;;;;;5.63;4.85;;;;;;;18.47;39.16;101620.91;5053184;28;20052;-56
2023/01/30 06:30:47;;;;;;;4.90;4.13;;;;;;;18.47;39.07;101620.91;5053272;28;20049;-57
2023/01/30 06:33:15;;;;;;;5.63;4.10;;;;;;;18.46;39.00;101621.84;5051560;28;20396;-57
2023/01/30 06:35:42;;;;;;;7.28;4.93;;;;;;;18.45;39.08;101622.81;5053376;28;20045;-59
2023/01/30 06:38:12;;;;;;;6.82;4.53;;;;;;;18.46;39.07;101618.31;5053239;28;20094;-48
2023/01/30 06:40:44;;;;;;;7.95;4.85;;;;;;;18.46;39.16;101627.22;5053759;28;20049;-57
2023/01/30 06:43:12;;;;;;;4.63;4.05;;;;;;;18.46;39.16;101639.75;5053533;28;20387;-57
2023/01/30 06:45:39;;;;;;;6.95;4.53;;;;;;;18.46;39.15;101640.63;5053209;28;20048;-57
2023/01/30 06:48:07;;;;;;;6.75;4.95;;;;;;;18.46;39.13;101642.44;5053347;28;20045;-49
2023/01/30 06:50:35;;;;;;;5.90;4.72;;;;;;;18.46;39.10;101647.81;5053276;28;20048;-58
2023/01/30 06:53:04;;;;;;;7.20;4.97;;;;;;;18.46;39.13;101645.97;5052990;28;20048;-58
2023/01/30 06:55:37;;;;;;;7.53;5.03;;;;;;;18.45;39.11;101655.00;5052206;28;20068;-57
2023/01/30 06:58:13;;;;;;;5.55;4.43;;;;;;;18.45;39.15;101654.13;5053137;28;20426;-48
2023/01/30 07:00:42;;;;;;;6.25;4.45;;;;;;;18.45;39.18;101654.13;5053207;28;20048;-49
2023/01/30 07:03:14;;;;;;;5.88;4.07;;;;;;;18.44;39.01;101653.28;5053477;28;20052;-51
2023/01/30 07:05:43;;;;;;;5.03;4.03;;;;;;;18.44;39.01;101652.44;5056887;28;20049;-49
2023/01/30 07:08:11;;;;;;;7.13;5.07;;;;;;;18.44;39.08;101647.91;5056782;28;20402;-49
2023/01/30 07:10:42;;;;;;;7.30;4.63;;;;;;;18.43;39.01;101653.38;5072203;28;20426;-48
2023/01/30 07:13:10;;;;;;;6.47;4.95;;;;;;;18.44;39.02;101663.16;5056617;28;20060;-49
2023/01/30 07:15:38;;;;;;;6.38;4.45;;;;;;;18.43;38.97;101666.78;5056635;28;20044;-48
2023/01/30 07:18:05;;;;;;;5.50;4.30;;;;;;;18.42;39.07;101660.56;5056707;28;20471;-58
2023/01/30 07:20:33;;;;;;;5.93;4.03;;;;;;;18.42;39.04;101670.44;5056550;28;20060;-49
2023/01/30 07:23:00;;;;;;;6.32;4.38;;;;;;;18.40;39.01;101659.81;5056499;28;20127;-46
2023/01/30 07:25:29;;;;;;;5.80;4.32;;;;;;;18.40;39.02;101645.56;5056676;28;20053;-47
2023/01/30 07:28:01;;;;;;;4.75;4.22;;;;;;;18.40;39.00;101645.56;5056432;28;20048;-47
2023/01/30 07:30:31;;;;;;;6.43;4.70;;;;;;;18.39;38.88;101631.31;5055001;28;20391;-59
2023/01/30 07:32:59;;;;;;;6.57;4.60;;;;;;;18.39;38.82;101630.41;5056183;28;20045;-57
2023/01/30 07:35:29;;;;;;;4.78;3.70;;;;;;;18.38;38.86;101629.56;5056160;28;20041;-58
2023/01/30 07:37:57;;;;;;;5.85;4.20;;;;;;;18.38;38.95;101623.34;5056237;28;20049;-58
2023/01/30 07:40:25;;;;;;;8.95;4.07;;;;;;;18.37;39.08;101619.81;5054914;28;20053;-48
2023/01/30 07:43:11;;;;;;;5.05;3.88;;;;;;;18.37;39.08;101616.28;5056168;28;20049;-49
2023/01/30 07:45:44;;;;;;;5.25;3.70;;;;;;;18.38;38.90;101626.03;5056303;28;20041;-49
2023/01/30 07:48:14;;;;;;;6.60;3.67;;;;;;;18.37;39.02;101621.63;5056100;28;20403;-50
2023/01/30 07:50:42;;;;;;;8.57;4.22;;;;;;;18.37;38.98;101613.59;5055998;28;20048;-51
2023/01/30 07:53:12;;;;;;;5.57;4.00;;;;;;;18.37;39.00;101625.19;5055676;28;20052;-53
2023/01/30 07:55:40;;;;;;;6.60;3.75;;;;;;;18.38;38.93;101631.38;5054799;28;20045;-51
2023/01/30 07:58:11;;;;;;;5.40;3.75;;;;;;;18.38;38.95;101631.38;5055569;28;20056;-54
2023/01/30 08:00:38;;;;;;;5.75;3.50;;;;;;;18.38;38.86;101618.00;5055721;28;20061;-53
2023/01/30 08:03:10;;;;;;;4.78;3.75;;;;;;;18.38;38.88;101618.84;5054652;28;20049;-51
2023/01/30 08:05:38;;;;;;;7.88;3.95;;;;;;;18.38;39.12;101626.03;5055355;28;20056;-54
2023/01/30 08:08:05;;;;;;;9.75;4.50;;;;;;;18.39;39.41;101625.06;5055358;28;20048;-53
2023/01/30 08:10:32;;;;;;;6.43;3.72;;;;;;;18.39;39.80;101625.94;5054941;28;20060;-52
2023/01/30 08:13:00;;;;;;;8.50;3.72;;;;;;;18.41;39.78;101613.28;5055320;28;20489;-53
2023/01/30 08:15:30;;;;;;;9.52;4.53;;;;;;;18.42;39.75;101601.56;5054118;28;20037;-53
2023/01/30 08:17:58;;;;;;;5.22;3.70;;;;;;;18.42;39.75;101601.56;5055181;28;20391;-47
2023/01/30 08:20:29;;;;;;;9.10;4.13;;;;;;;18.44;39.83;101598.81;5055545;28;20502;-54
2023/01/30 08:22:58;;;;;;;7.15;3.58;;;;;;;18.44;39.75;101588.94;5055124;28;20041;-54
2023/01/30 08:25:25;;;;;;;7.07;3.47;;;;;;;18.46;39.32;101591.50;5055026;28;20040;-52
2023/01/30 08:27:53;;;;;;;5.38;3.90;;;;;;;18.46;39.73;101586.13;5055283;28;20048;-54
2023/01/30 08:30:21;;;;;;;8.15;3.88;;;;;;;18.47;39.62;101588.72;5054417;28;20072;-47
2023/01/30 08:32:49;;;;;;;7.13;4.00;;;;;;;18.48;39.52;101585.06;5054691;28;20045;-47
2023/01/30 08:35:16;;;;;;;8.35;4.00;;;;;;;18.50;39.60;101579.59;5054544;28;20048;-47
2023/01/30 08:37:43;;;;;;;7.40;3.90;;;;;;;18.51;39.45;101574.13;5054698;28;20056;-46
2023/01/30 08:40:11;;;;;;;5.95;4.18;;;;;;;18.53;38.92;101569.50;5054775;28;20044;-47
2023/01/30 08:42:39;;;;;;;8.30;6.20;;;;;;;18.53;35.98;101557.94;5054519;28;20385;-50
2023/01/30 08:45:07;;;;;;;17.30;6.20;;;;;;;18.51;35.23;101549.13;5054322;28;20052;-47
2023/01/30 08:47:34;;;;;;;8.32;5.43;;;;;;;18.50;35.85;101564.34;5054124;28;20065;-48
2023/01/30 08:50:03;;;;;;;11.77;5.90;;;;;;;18.49;35.69;101559.97;5054486;28;20052;-52
2023/01/30 08:52:33;;;;;;;9.57;5.75;;;;;;;18.49;35.07;101551.06;5054292;28;20048;-51
2023/01/30 08:55:01;;;;;;;8.13;5.13;;;;;;;18.49;36.38;101553.75;5054008;28;20052;-54
2023/01/30 08:57:28;;;;;;;8.63;5.78;;;;;;;18.50;35.34;101542.91;5053838;28;20045;-50
2023/01/30 08:59:55;;;;;;;11.05;6.82;;;;;;;18.50;34.62;101536.69;5054312;28;20053;-51
2023/01/30 09:02:22;;;;;;;9.88;7.30;;;;;;;18.49;33.86;101540.34;5054116;28;20045;-50
2023/01/30 09:04:50;;;;;;;11.35;7.13;;;;;;;18.49;34.22;101526.94;5054156;28;20041;-52
2023/01/30 09:07:17;;;;;;;9.15;7.00;;;;;;;18.47;33.31;101532.44;5053658;28;20053;-50
2023/01/30 09:09:45;;;;;;;13.80;8.35;;;;;;;18.46;32.79;101529.84;5053624;28;20055;-52
2023/01/30 09:12:12;;;;;;;10.98;6.75;;;;;;;18.45;33.58;101522.75;5054028;28;20049;-52
2023/01/30 09:14:40;;;;;;;7.57;5.85;;;;;;;18.46;34.86;101509.25;5054288;28;20037;-50
2023/01/30 09:17:07;;;;;;;9.27;5.22;;;;;;;18.49;35.79;101505.50;5053980;28;20045;-50
2023/01/30 09:19:36;;;;;;;7.70;5.38;;;;;;;18.49;36.08;101506.34;5053670;28;20057;-47
2023/01/30 09:22:04;;;;;;;10.10;5.85;;;;;;;18.52;35.76;101505.28;5053813;28;20387;-47
2023/01/30 09:24:31;;;;;;;7.70;5.65;;;;;;;18.53;36.33;101499.78;5052593;28;20049;-47
2023/01/30 09:26:58;;;;;;;8.77;5.25;;;;;;;18.56;36.41;101493.38;5054046;28;20422;-50
2023/01/30 09:29:26;;;;;;;7.07;5.03;;;;;;;18.57;36.55;101488.84;5053814;28;20056;-52
2023/01/30 09:31:57;;;;;;;8.10;5.15;;;;;;;18.58;36.52;101482.53;5053704;28;20052;-50
2023/01/30 09:34:27;;;;;;;9.40;5.55;;;;;;;18.58;36.31;101478.00;5053675;28;20059;-53
2023/01/30 09:36:55;;;;;;;10.20;5.22;;;;;;;18.58;36.84;101474.47;5053618;28;20472;-53
2023/01/30 09:39:23;;;;;;;6.20;4.68;;;;;;;18.58;36.77;101472.66;5053985;28;20049;-46
2023/01/30 09:42:08;;;;;;;7.18;4.93;;;;;;;18.58;36.85;101463.75;5053284;28;20053;-46
2023/01/30 09:45:13;;;;;;;7.30;4.97;;;;;;;18.58;36.74;101461.91;5053807;28;20440;-47
2023/01/30 09:48:24;;;;;;;6.18;4.85;;;;;;;18.58;36.84;101455.69;5053734;28;20044;-49
2023/01/30 09:51:06;;;;;;;5.75;4.55;;;;;;;18.57;36.75;101457.53;5031086;28;20064;-46
2023/01/30 09:53:45;;;;;;;6.85;4.32;;;;;;;18.57;36.93;101462.03;5053027;28;20056;-46
2023/01/30 09:56:13;;;;;;;7.15;4.28;;;;;;;18.58;36.79;101461.06;5052821;28;20044;-47
2023/01/30 09:58:50;;;;;;;7.45;5.18;;;;;;;18.56;36.92;101458.50;5053004;28;20052;-50
2023/01/30 10:01:39;;;;;;;5.50;4.07;;;;;;;18.56;37.01;101461.19;5052866;28;20057;-51
2023/01/30 10:04:31;;;;;;;5.57;4.50;;;;;;;18.55;37.00;101462.13;5052911;28;20049;-52
2023/01/30 10:07:23;;;;;;;5.43;3.80;;;;;;;18.55;36.98;101456.78;5052889;28;20045;-51
2023/01/30 10:09:54;;;;;;;8.40;4.20;;;;;;;18.55;36.97;101454.09;5053051;28;20053;-50
2023/01/30 10:12:39;;;;;;;5.97;4.57;;;;;;;18.53;37.08;101459.56;5052747;28;20041;-52
2023/01/30 10:15:06;;;;;;;7.03;4.40;;;;;;;18.53;37.28;101458.72;5050887;28;20442;-53
2023/01/30 10:17:58;;;;;;;5.45;4.32;;;;;;;18.54;37.55;101460.44;5052971;28;20507;-52
2023/01/30 10:20:51;;;;;;;7.47;4.82;;;;;;;18.51;36.36;101442.75;5051769;28;20068;-47
2023/01/30 10:23:18;;;;;;;7.38;4.32;;;;;;;18.50;36.84;101437.47;5052549;28;20052;-51
2023/01/30 10:25:51;;;;;;;6.15;4.32;;;;;;;18.49;37.36;101433.94;5052882;28;20049;-51
2023/01/30 10:28:28;;;;;;;6.07;3.92;;;;;;;18.50;37.54;101435.66;5052815;28;20048;-49
2023/01/30 10:31:03;;;;;;;7.13;3.97;;;;;;;18.50;37.75;101437.47;5052883;28;20064;-47
2023/01/30 10:33:56;;;;;;;7.22;4.38;;;;;;;18.51;37.92;101434.72;5048717;28;20060;-47
2023/01/30 10:36:59;;;;;;;5.22;4.10;;;;;;;18.50;37.80;101419.56;5031221;28;20038;-49
2023/01/30 10:39:41;;;;;;;6.40;4.45;;;;;;;18.50;37.82;101419.56;5035315;28;20072;-46
2023/01/30 10:42:36;;;;;;;6.15;3.88;;;;;;;18.50;37.79;101416.88;5036614;28;20060;-46
2023/01/30 10:45:12;;;;;;;5.25;3.75;;;;;;;18.50;38.02;101416.88;5036748;28;20045;-49
2023/01/30 10:48:04;;;;;;;6.40;3.88;;;;;;;18.51;37.87;101423.09;5037135;28;20377;-48
2023/01/30 10:50:40;;;;;;;5.25;3.58;;;;;;;18.50;37.91;101421.41;5037094;28;20052;-50
2023/01/30 10:53:20;;;;;;;4.78;3.45;;;;;;;18.51;37.87;101415.06;5036946;28;20045;-50
2023/01/30 10:55:51;;;;;;;5.43;4.00;;;;;;;18.50;37.93;101411.53;5036779;28;20053;-51
2023/01/30 10:58:37;;;;;;;8.43;3.80;;;;;;;18.51;37.94;101409.69;5036899;28;20053;-47
2023/01/30 11:01:39;;;;;;;6.00;3.97;;;;;;;18.50;38.30;101395.44;5036633;28;20057;-47
2023/01/30 11:04:18;;;;;;;6.22;3.90;;;;;;;18.51;38.24;101402.53;5036768;28;20053;-47
2023/01/30 11:06:45;;;;;;;4.88;3.67;;;;;;;18.51;38.12;101397.19;5036540;28;20049;-46
2023/01/30 11:09:13;;;;;;;5.38;4.07;;;;;;;18.51;38.22;101382.88;5036709;28;20041;-50
2023/01/30 11:11:54;;;;;;;5.68;3.85;;;;;;;18.51;38.27;101364.13;5035592;28;20046;-49
2023/01/30 11:14:21;;;;;;;6.05;3.90;;;;;;;18.52;38.24;101365.84;5036048;28;20056;-49
2023/01/30 11:16:50;;;;;;;4.93;3.60;;;;;;;18.51;38.20;101375.72;5036981;28;20395;-49
2023/01/30 11:19:22;;;;;;;5.30;3.72;;;;;;;18.51;38.41;101374.84;5036344;28;20049;-50
2023/01/30 11:21:58;;;;;;;5.30;4.18;;;;;;;18.51;38.30;101373.03;5036356;28;20060;-50
2023/01/30 11:24:41;;;;;;;5.50;3.75;;;;;;;18.51;38.50;101366.81;5036074;28;20056;-50
2023/01/30 11:27:27;;;;;;;5.90;3.80;;;;;;;18.50;38.49;101357.91;5036215;28;20049;-50
2023/01/30 11:30:12;;;;;;;5.93;3.97;;;;;;;18.51;38.48;101340.88;5035933;28;20056;-47
2023/01/30 11:32:45;;;;;;;5.90;3.22;;;;;;;18.51;38.50;101326.59;5035964;28;20511;-47
2023/01/30 11:35:12;;;;;;;5.82;3.97;;;;;;;18.51;38.27;101321.22;5042926;28;20467;-45
2023/01/30 11:37:42;;;;;;;5.00;3.67;;;;;;;18.51;38.43;101311.38;5055961;28;20060;-47
2023/01/30 11:40:15;;;;;;;6.68;4.00;;;;;;;18.50;38.34;101301.59;5056062;28;20471;-45
2023/01/30 11:42:47;;;;;;;5.07;3.50;;;;;;;18.50;38.48;101309.66;5055296;28;20072;-48
2023/01/30 11:45:17;;;;;;;4.30;3.45;;;;;;;18.51;38.35;101306.03;5055067;28;20060;-49
2023/01/30 11:47:55;;;;;;;5.60;3.72;;;;;;;18.50;38.39;101306.09;5055432;28;20071;-48
2023/01/30 11:50:43;;;;;;;5.88;3.40;;;;;;;18.50;38.51;101306.97;5054214;28;20048;-50
2023/01/30 11:53:44;;;;;;;4.05;3.33;;;;;;;18.51;38.48;101305.13;5055099;28;20048;-50
2023/01/30 11:56:30;;;;;;;5.20;3.90;;;;;;;18.51;38.46;101286.38;5049706;28;20045;-51